Time;durP1;ratioP1;P1;durP2;ratioP2;P2;SDS_P1;SDS_P2;PMS_P1;PMS_P2;Temp;Humidity;BMP_temperature;BMP_pressure;BME280_temperature;BME280_humidity;BME280_pressure;Samples;Min_cycle;Max_cycle;Signal;HPM_P1;HPM_P2
2022/05/03 00:01:06;;;;;;;;;;;14.40;99.90;;;;;;5083647;28;19904;-87
2022/05/03 00:03:41;;;;;;;;;;;14.40;99.90;;;;;;5065698;28;19920;-88
2022/05/03 00:06:25;;;;;;;;;;;14.20;99.90;;;;;;5083330;28;19904;-87
2022/05/03 00:09:01;;;;;;;;;;;14.20;99.90;;;;;;5083649;28;19904;-88
2022/05/03 00:11:31;;;;;;;;;;;14.20;99.90;;;;;;5083329;28;20361;-87
2022/05/03 00:14:00;;;;;;;;;;;14.30;99.90;;;;;;5083687;28;20221;-87
2022/05/03 00:16:26;;;;;;;;;;;14.30;99.90;;;;;;5065432;28;20220;-87
2022/05/03 00:18:52;;;;;;;;;;;14.30;99.90;;;;;;5083268;28;20149;-87
2022/05/03 00:21:17;;;;;;;;;;;14.20;99.90;;;;;;5064956;28;19970;-87
2022/05/03 00:23:43;;;;;;;;;;;14.20;99.90;;;;;;5082884;28;20325;-87
2022/05/03 00:26:09;;;;;;;;;;;14.20;99.90;;;;;;5064658;28;20255;-88
2022/05/03 00:28:35;;;;;;;;;;;14.20;99.90;;;;;;5083295;28;19904;-88
2022/05/03 00:31:01;;;;;;;;;;;14.20;99.90;;;;;;5082607;28;19943;-87
2022/05/03 00:33:29;;;;;;;;;;;14.20;99.90;;;;;;5082963;28;19983;-87
2022/05/03 00:35:54;;;;;;;;;;;14.20;99.90;;;;;;5082764;28;19905;-87
2022/05/03 00:38:20;;;;;;;;;;;14.20;99.90;;;;;;5064799;28;19942;-88
2022/05/03 00:40:52;;;;;;;;;;;14.10;99.90;;;;;;5082459;28;19950;-87
2022/05/03 00:43:23;;;;;;;;;;;14.10;99.90;;;;;;5082495;28;20319;-87
2022/05/03 00:45:54;;;;;;;;;;;14.10;99.90;;;;;;5064289;28;19938;-88
2022/05/03 00:48:29;;;;;;;;;;;14.00;99.90;;;;;;5065243;28;19904;-87
2022/05/03 00:51:10;;;;;;;;;;;14.00;99.90;;;;;;5082382;28;19912;-87
2022/05/03 00:53:54;;;;;;;;;;;14.00;99.90;;;;;;5082617;28;20030;-87
2022/05/03 00:56:20;;;;;;;;;;;13.90;99.90;;;;;;5064718;28;20023;-88
2022/05/03 00:58:51;;;;;;;;;;;13.90;99.90;;;;;;5082628;28;20056;-87
2022/05/03 01:01:17;;;;;;;;;;;13.90;99.90;;;;;;5076779;28;19905;-87
2022/05/03 01:03:52;;;;;;;;;;;13.90;99.90;;;;;;5064515;28;19920;-87
2022/05/03 01:06:33;;;;;;;;;;;13.90;99.90;;;;;;5077469;28;19905;-87
2022/05/03 01:09:03;;;;;;;;;;;13.70;99.90;;;;;;5082353;28;19950;-87
2022/05/03 01:11:34;;;;;;;;;;;13.60;99.90;;;;;;5082335;28;20158;-87
2022/05/03 01:14:18;;;;;;;;;;;13.60;99.90;;;;;;5064011;28;20205;-88
2022/05/03 01:16:55;;;;;;;;;;;13.50;99.90;;;;;;5064242;28;20201;-87
2022/05/03 01:19:24;;;;;;;;;;;13.50;99.90;;;;;;5064017;28;19905;-87
2022/05/03 01:22:03;;;;;;;;;;;13.50;99.90;;;;;;5064457;28;20128;-87
2022/05/03 01:24:32;;;;;;;;;;;13.50;99.90;;;;;;5082320;28;20169;-87
2022/05/03 01:26:58;;;;;;;;;;;13.60;99.90;;;;;;5063997;28;19916;-87
2022/05/03 01:29:27;;;;;;;;;;;13.50;99.90;;;;;;5064337;28;20185;-87
2022/05/03 01:31:57;;;;;;;;;;;13.40;99.90;;;;;;5064156;28;19904;-88
2022/05/03 01:34:23;;;;;;;;;;;13.30;99.90;;;;;;5063889;28;19904;-87
2022/05/03 01:37:09;;;;;;;;;;;13.40;99.90;;;;;;5082203;28;20113;-87
2022/05/03 01:39:35;;;;;;;;;;;13.40;99.90;;;;;;5046701;28;19904;-87
2022/05/03 01:42:03;;;;;;;;;;;13.40;99.90;;;;;;5064040;28;19911;-87
2022/05/03 01:44:39;;;;;;;;;;;13.30;99.90;;;;;;5081430;28;19919;-88
2022/05/03 01:47:08;;;;;;;;;;;13.30;99.90;;;;;;5063759;28;19909;-87
2022/05/03 01:50:18;;;;;;;;;;;13.30;99.90;;;;;;5063371;28;19904;-87
2022/05/03 01:52:56;;;;;;;;;;;13.30;99.90;;;;;;4986555;28;19904;-87
2022/05/03 01:55:40;;;;;;;;;;;13.30;99.90;;;;;;5081659;28;19942;-87
2022/05/03 01:58:24;;;;;;;;;;;13.30;99.90;;;;;;5081886;28;20204;-87
2022/05/03 02:01:01;;;;;;;;;;;13.30;99.90;;;;;;5081865;28;20226;-87
2022/05/03 02:03:29;;;;;;;;;;;13.20;99.90;;;;;;5064046;28;19915;-87
2022/05/03 02:06:01;;;;;;;;;;;13.20;99.90;;;;;;5063629;28;19935;-87
2022/05/03 02:08:45;;;;;;;;;;;13.30;99.90;;;;;;5082054;28;19954;-87
2022/05/03 02:11:25;;;;;;;;;;;13.20;99.90;;;;;;5063846;28;19904;-87
2022/05/03 02:16:57;;;;;;;;;;;13.10;99.90;;;;;;5081688;28;19912;-87
2022/05/03 02:19:41;;;;;;;;;;;13.10;99.90;;;;;;5029199;28;20066;-88
2022/05/03 02:22:26;;;;;;;;;;;13.10;99.90;;;;;;5063156;28;19916;-86
2022/05/03 02:24:54;;;;;;;;;;;13.10;99.90;;;;;;5063717;28;19913;-87
2022/05/03 02:27:21;;;;;;;;;;;13.20;99.90;;;;;;5080174;28;19927;-86
2022/05/03 02:29:47;;;;;;;;;;;13.10;99.90;;;;;;5063041;28;19905;-86
2022/05/03 02:32:16;;;;;;;;;;;13.10;99.90;;;;;;5080942;28;19917;-86
2022/05/03 02:34:49;;;;;;;;;;;13.20;99.90;;;;;;5063496;28;19904;-85
2022/05/03 02:37:14;;;;;;;;;;;13.20;99.90;;;;;;5063468;28;19912;-87
2022/05/03 02:40:11;;;;;;;;;;;13.00;99.90;;;;;;5081624;28;19905;-86
2022/05/03 02:42:37;;;;;;;;;;;13.00;99.90;;;;;;5079836;28;19912;-86
2022/05/03 02:45:03;;;;;;;;;;;13.00;99.90;;;;;;5063037;28;19920;-87
2022/05/03 02:47:44;;;;;;;;;;;13.00;99.90;;;;;;5081310;28;19915;-87
2022/05/03 02:50:18;;;;;;;;;;;13.00;99.90;;;;;;5062724;28;19904;-87
2022/05/03 02:53:06;;;;;;;;;;;12.80;99.90;;;;;;5081283;28;19904;-87
2022/05/03 02:55:41;;;;;;;;;;;12.90;99.90;;;;;;5081100;28;19935;-87
2022/05/03 02:58:10;;;;;;;;;;;12.90;99.90;;;;;;5063471;28;19963;-87
2022/05/03 03:03:42;;;;;;;;;;;12.90;99.90;;;;;;5081134;28;19916;-87
2022/05/03 03:06:12;;;;;;;;;;;12.90;99.90;;;;;;5080769;28;19904;-87
2022/05/03 03:08:43;;;;;;;;;;;12.90;99.90;;;;;;5065004;28;19905;-87
2022/05/03 03:11:13;;;;;;;;;;;12.90;99.90;;;;;;5066451;28;19940;-86
2022/05/03 03:13:44;;;;;;;;;;;12.90;99.90;;;;;;5083660;28;20196;-86
2022/05/03 03:16:12;;;;;;;;;;;12.80;99.90;;;;;;5066728;28;20015;-87
2022/05/03 03:18:40;;;;;;;;;;;12.70;99.90;;;;;;5066868;28;20086;-87
2022/05/03 03:21:08;;;;;;;;;;;12.80;99.90;;;;;;5066287;28;19904;-87
2022/05/03 03:23:35;;;;;;;;;;;12.70;99.90;;;;;;5066555;28;19951;-87
2022/05/03 03:26:01;;;;;;;;;;;12.60;99.90;;;;;;5066381;28;19987;-87
2022/05/03 03:28:28;;;;;;;;;;;12.60;99.90;;;;;;5083797;28;19950;-87
2022/05/03 03:30:55;;;;;;;;;;;12.50;99.90;;;;;;5083211;28;19976;-87
2022/05/03 03:33:21;;;;;;;;;;;12.50;99.90;;;;;;5066164;28;19967;-86
2022/05/03 03:35:47;;;;;;;;;;;12.50;99.90;;;;;;5065882;28;19997;-87
2022/05/03 03:38:13;;;;;;;;;;;12.50;99.90;;;;;;5059813;28;19905;-87
2022/05/03 03:40:39;;;;;;;;;;;12.50;99.90;;;;;;5083738;28;19909;-87
2022/05/03 03:43:05;;;;;;;;;;;12.50;99.90;;;;;;5073903;28;20311;-86
2022/05/03 03:45:31;;;;;;;;;;;12.50;99.90;;;;;;5056191;28;19912;-87
2022/05/03 03:47:57;;;;;;;;;;;12.50;99.90;;;;;;5073322;28;19939;-87
2022/05/03 03:50:24;;;;;;;;;;;12.50;99.90;;;;;;5061935;28;19912;-87
2022/05/03 03:52:50;;;;;;;;;;;12.60;99.90;;;;;;5083276;28;19910;-87
2022/05/03 03:55:15;;;;;;;;;;;12.60;99.90;;;;;;5083739;28;19905;-87
2022/05/03 03:57:41;;;;;;;;;;;12.50;99.90;;;;;;5065526;28;20099;-87
2022/05/03 04:00:07;;;;;;;;;;;12.50;99.90;;;;;;5082944;28;20078;-88
2022/05/03 04:02:34;;;;;;;;;;;12.50;99.90;;;;;;5065809;28;19905;-87
2022/05/03 04:05:00;;;;;;;;;;;12.50;99.90;;;;;;5065477;28;20193;-88
2022/05/03 04:07:25;;;;;;;;;;;12.50;99.90;;;;;;5083672;28;19940;-87
2022/05/03 04:09:51;;;;;;;;;;;12.50;99.90;;;;;;5083620;28;20192;-87
2022/05/03 04:12:19;;;;;;;;;;;12.50;99.90;;;;;;5065443;28;20239;-87
2022/05/03 04:14:45;;;;;;;;;;;12.40;99.90;;;;;;5083191;28;19957;-84
2022/05/03 04:17:10;;;;;;;;;;;12.40;99.90;;;;;;5083227;28;19904;-85
2022/05/03 04:19:36;;;;;;;;;;;12.40;99.90;;;;;;5079081;28;19982;-85
2022/05/03 04:22:12;;;;;;;;;;;12.40;99.90;;;;;;5071841;28;19931;-85
2022/05/03 04:24:38;;;;;;;;;;;12.40;99.90;;;;;;5072062;28;19971;-85
2022/05/03 04:27:04;;;;;;;;;;;12.40;99.90;;;;;;5071148;28;19924;-85
2022/05/03 04:29:29;;;;;;;;;;;12.30;99.90;;;;;;5071245;28;20849;-85
2022/05/03 04:31:55;;;;;;;;;;;12.20;99.90;;;;;;5071000;28;19943;-85
2022/05/03 04:34:20;;;;;;;;;;;12.00;99.90;;;;;;5070439;28;19940;-85
2022/05/03 04:36:46;;;;;;;;;;;12.00;99.90;;;;;;5070870;28;19948;-85
2022/05/03 04:39:11;;;;;;;;;;;12.10;99.90;;;;;;5071006;28;19948;-84
2022/05/03 04:41:37;;;;;;;;;;;12.10;99.90;;;;;;5067950;28;20363;-85
2022/05/03 04:44:03;;;;;;;;;;;12.10;99.90;;;;;;5071415;28;20423;-84
2022/05/03 04:46:28;;;;;;;;;;;12.20;99.90;;;;;;5071234;28;19909;-85
2022/05/03 04:48:54;;;;;;;;;;;12.20;99.90;;;;;;5072758;28;20399;-85
2022/05/03 04:51:20;;;;;;;;;;;12.10;99.90;;;;;;5072565;28;20002;-85
2022/05/03 04:53:46;;;;;;;;;;;12.10;99.90;;;;;;5071065;28;20007;-85
2022/05/03 04:56:19;;;;;;;;;;;12.10;99.90;;;;;;5071100;28;20460;-85
2022/05/03 04:58:44;;;;;;;;;;;12.10;99.90;;;;;;5072652;28;19908;-85
2022/05/03 05:01:10;;;;;;;;;;;12.10;99.90;;;;;;5071157;28;19916;-85
2022/05/03 05:03:36;;;;;;;;;;;12.20;99.90;;;;;;5070945;28;19927;-85
2022/05/03 05:06:01;;;;;;;;;;;12.10;99.90;;;;;;5073540;28;19908;-85
2022/05/03 05:08:27;;;;;;;;;;;12.10;99.90;;;;;;5070882;28;19909;-85
2022/05/03 05:10:52;;;;;;;;;;;12.10;99.90;;;;;;5070710;28;19908;-85
2022/05/03 05:13:18;;;;;;;;;;;12.20;99.90;;;;;;5053529;28;19908;-85
2022/05/03 05:15:43;;;;;;;;;;;12.20;99.90;;;;;;5073307;28;19908;-85
2022/05/03 05:18:09;;;;;;;;;;;12.20;99.90;;;;;;5070745;28;19962;-85
2022/05/03 05:20:34;;;;;;;;;;;12.10;99.90;;;;;;5070438;28;19982;-85
2022/05/03 05:23:00;;;;;;;;;;;12.10;99.90;;;;;;5070639;28;19979;-85
2022/05/03 05:25:25;;;;;;;;;;;12.10;99.90;;;;;;5052554;28;19916;-85
2022/05/03 05:27:51;;;;;;;;;;;12.20;99.90;;;;;;5070873;28;20377;-85
2022/05/03 05:30:17;;;;;;;;;;;12.20;99.90;;;;;;5053778;28;20001;-85
2022/05/03 05:32:42;;;;;;;;;;;12.20;99.90;;;;;;5070475;28;19931;-85
2022/05/03 05:35:08;;;;;;;;;;;12.30;99.90;;;;;;5070065;28;19925;-85
2022/05/03 05:37:33;;;;;;;;;;;12.20;99.90;;;;;;5052553;28;20383;-86
2022/05/03 05:39:59;;;;;;;;;;;12.20;99.90;;;;;;5052620;28;19916;-85
2022/05/03 05:42:27;;;;;;;;;;;12.20;99.90;;;;;;5052480;28;20171;-85
2022/05/03 05:44:53;;;;;;;;;;;12.20;99.90;;;;;;5052457;28;19921;-85
2022/05/03 05:47:19;;;;;;;;;;;12.30;99.90;;;;;;5070403;28;19970;-85
2022/05/03 05:49:44;;;;;;;;;;;12.30;99.90;;;;;;5070255;28;20011;-85
2022/05/03 05:54:55;;;;;;;;;;;12.40;99.90;;;;;;5070557;28;19915;-84
2022/05/03 05:57:20;;;;;;;;;;;12.40;99.90;;;;;;5070685;28;19909;-85
2022/05/03 05:59:46;;;;;;;;;;;12.50;99.90;;;;;;5052377;28;19939;-85
2022/05/03 06:02:12;;;;;;;;;;;12.60;99.90;;;;;;5052219;28;19912;-85
2022/05/03 06:04:37;;;;;;;;;;;12.60;99.90;;;;;;5069879;28;20261;-85
2022/05/03 06:07:03;;;;;;;;;;;12.80;99.90;;;;;;5070287;28;20360;-85
2022/05/03 06:09:28;;;;;;;;;;;12.80;99.90;;;;;;5052031;28;20440;-85
2022/05/03 06:11:54;;;;;;;;;;;12.90;99.90;;;;;;5070039;28;20280;-85
2022/05/03 06:14:19;;;;;;;;;;;12.90;99.90;;;;;;5070138;28;19931;-85
2022/05/03 06:16:48;;;;;;;;;;;13.00;99.90;;;;;;5070208;28;20395;-85
2022/05/03 06:19:14;;;;;;;;;;;13.10;99.90;;;;;;5069723;28;19909;-85
2022/05/03 06:21:39;;;;;;;;;;;13.20;99.90;;;;;;5070144;28;19908;-84
2022/05/03 06:24:06;;;;;;;;;;;13.30;99.90;;;;;;5070082;28;19917;-85
2022/05/03 06:26:31;;;;;;;;;;;13.40;99.90;;;;;;5069824;28;19932;-84
2022/05/03 06:28:57;;;;;;;;;;;13.40;99.90;;;;;;5051816;28;19908;-85
2022/05/03 06:31:24;;;;;;;;;;;13.40;99.90;;;;;;5052121;28;20013;-85
2022/05/03 06:33:49;;;;;;;;;;;13.50;99.90;;;;;;5069435;28;19915;-84
2022/05/03 06:36:15;;;;;;;;;;;13.50;99.90;;;;;;5069910;28;19912;-85
2022/05/03 06:38:40;;;;;;;;;;;13.60;99.90;;;;;;5069777;28;20011;-85
2022/05/03 06:41:08;;;;;;;;;;;13.60;99.90;;;;;;5051959;28;19909;-84
2022/05/03 06:43:34;;;;;;;;;;;13.60;99.90;;;;;;5071934;28;19966;-85
2022/05/03 06:45:59;;;;;;;;;;;13.60;99.90;;;;;;5073664;28;19916;-85
2022/05/03 06:48:25;;;;;;;;;;;13.60;99.90;;;;;;5055537;28;19904;-85
2022/05/03 06:50:51;;;;;;;;;;;13.70;99.90;;;;;;5073082;28;20438;-85
2022/05/03 06:53:16;;;;;;;;;;;13.70;99.90;;;;;;5073431;28;19995;-85
2022/05/03 06:55:42;;;;;;;;;;;13.70;99.90;;;;;;5073464;28;20380;-85
2022/05/03 06:58:07;;;;;;;;;;;13.80;99.90;;;;;;5073432;28;20412;-85
2022/05/03 07:00:33;;;;;;;;;;;13.80;99.90;;;;;;5073795;28;19999;-85
2022/05/03 07:02:58;;;;;;;;;;;13.90;99.90;;;;;;5073405;28;19909;-85
2022/05/03 07:05:24;;;;;;;;;;;14.00;99.90;;;;;;5072931;28;19917;-86
2022/05/03 07:07:49;;;;;;;;;;;14.10;99.90;;;;;;5073357;28;19908;-85
2022/05/03 07:10:15;;;;;;;;;;;14.10;99.90;;;;;;5073036;28;19915;-85
2022/05/03 07:12:41;;;;;;;;;;;14.10;99.90;;;;;;5073036;28;20579;-85
2022/05/03 07:15:08;;;;;;;;;;;14.20;99.90;;;;;;5072941;28;19931;-85
2022/05/03 07:23:02;;;;;;;;;;;14.30;99.90;;;;;;5073280;28;20285;-85
2022/05/03 07:25:28;;;;;;;;;;;14.40;99.90;;;;;;5054793;28;20285;-85
2022/05/03 07:27:53;;;;;;;;;;;14.50;99.90;;;;;;5073431;28;19916;-85
2022/05/03 07:30:19;;;;;;;;;;;14.60;99.90;;;;;;5072948;28;20307;-85
2022/05/03 07:32:45;;;;;;;;;;;14.70;99.90;;;;;;5072868;28;19909;-85
2022/05/03 07:35:11;;;;;;;;;;;14.80;99.90;;;;;;5054163;28;19970;-85
2022/05/03 07:37:37;;;;;;;;;;;14.90;99.90;;;;;;5072815;28;19954;-85
2022/05/03 07:40:03;;;;;;;;;;;15.00;99.90;;;;;;5054578;28;19908;-86
2022/05/03 07:42:29;;;;;;;;;;;15.10;99.90;;;;;;5054826;28;20353;-86
2022/05/03 07:44:54;;;;;;;;;;;15.20;99.90;;;;;;5072904;28;20057;-86
2022/05/03 07:47:20;;;;;;;;;;;15.30;99.90;;;;;;5072324;28;20388;-85
2022/05/03 07:49:45;;;;;;;;;;;15.30;99.90;;;;;;5054258;28;19909;-85
2022/05/03 07:52:11;;;;;;;;;;;15.40;99.90;;;;;;5072052;28;19920;-85
2022/05/03 07:54:43;;;;;;;;;;;15.30;99.90;;;;;;5054016;28;19908;-86
2022/05/03 07:57:08;;;;;;;;;;;15.40;99.90;;;;;;5072343;28;20372;-85
2022/05/03 07:59:34;;;;;;;;;;;15.60;99.90;;;;;;5054432;28;19954;-86
2022/05/03 08:02:00;;;;;;;;;;;15.80;99.90;;;;;;5054350;28;19955;-85
2022/05/03 08:04:25;;;;;;;;;;;15.80;99.90;;;;;;5053550;28;19923;-85
2022/05/03 08:06:51;;;;;;;;;;;15.90;99.90;;;;;;5054431;28;19966;-85
2022/05/03 08:09:16;;;;;;;;;;;16.00;99.90;;;;;;5072110;28;19954;-85
2022/05/03 08:11:42;;;;;;;;;;;16.10;99.90;;;;;;5072062;28;20363;-86
2022/05/03 08:14:07;;;;;;;;;;;16.20;99.90;;;;;;5072007;28;19999;-85
2022/05/03 08:16:33;;;;;;;;;;;16.30;99.90;;;;;;5071773;28;20007;-86
2022/05/03 08:18:59;;;;;;;;;;;16.40;99.90;;;;;;5053796;28;20422;-85
2022/05/03 08:21:25;;;;;;;;;;;16.50;99.90;;;;;;5071884;28;19908;-85
2022/05/03 08:23:51;;;;;;;;;;;16.50;99.90;;;;;;5072308;28;19916;-86
2022/05/03 08:26:17;;;;;;;;;;;16.70;99.90;;;;;;5071807;28;19994;-86
2022/05/03 08:28:43;;;;;;;;;;;16.80;99.90;;;;;;5053877;28;19931;-86
2022/05/03 08:31:08;;;;;;;;;;;17.00;99.90;;;;;;5071912;28;19908;-85
2022/05/03 08:33:34;;;;;;;;;;;16.90;99.90;;;;;;5071022;28;19914;-86
2022/05/03 08:36:00;;;;;;;;;;;16.90;99.90;;;;;;5071400;28;20006;-86
2022/05/03 08:43:54;;;;;;;;;;;17.20;99.90;;;;;;5071616;28;19924;-86
2022/05/03 08:46:21;;;;;;;;;;;17.20;99.90;;;;;;5071379;28;19908;-85
2022/05/03 08:48:48;;;;;;;;;;;17.40;99.90;;;;;;5071136;28;19924;-86
2022/05/03 08:51:16;;;;;;;;;;;17.40;99.90;;;;;;5053270;28;20379;-85
2022/05/03 08:53:42;;;;;;;;;;;17.50;99.90;;;;;;5071327;28;19916;-85
2022/05/03 08:56:07;;;;;;;;;;;17.60;99.90;;;;;;5071046;28;19908;-86
2022/05/03 08:58:33;;;;;;;;;;;17.70;99.90;;;;;;5070994;28;19908;-85
2022/05/03 09:00:59;;;;;;;;;;;17.80;99.90;;;;;;5071076;28;19954;-86
2022/05/03 09:03:24;;;;;;;;;;;17.90;99.90;;;;;;5052668;28;19995;-85
2022/05/03 09:05:52;;;;;;;;;;;17.90;99.80;;;;;;5070486;28;20377;-86
2022/05/03 09:08:23;;;;;;;;;;;18.00;99.90;;;;;;5071420;28;19912;-85
2022/05/03 09:10:50;;;;;;;;;;;18.00;99.80;;;;;;5070999;28;19908;-86
2022/05/03 09:13:18;;;;;;;;;;;18.10;99.90;;;;;;5070814;28;19966;-86
2022/05/03 09:15:44;;;;;;;;;;;18.20;99.90;;;;;;5052769;28;20430;-86
2022/05/03 09:18:19;;;;;;;;;;;18.20;99.90;;;;;;5070549;28;20441;-85
2022/05/03 09:23:47;;;;;;;;;;;18.40;99.50;;;;;;5070979;28;20250;-86
2022/05/03 09:26:14;;;;;;;;;;;18.60;99.30;;;;;;5066342;28;20031;-85
2022/05/03 09:28:53;;;;;;;;;;;18.60;98.90;;;;;;5052745;28;20007;-85
2022/05/03 09:31:30;;;;;;;;;;;18.60;99.50;;;;;;5052632;28;19951;-86
2022/05/03 09:34:17;;;;;;;;;;;18.70;99.00;;;;;;5070325;28;19908;-85
2022/05/03 09:36:46;;;;;;;;;;;18.80;99.00;;;;;;5070515;28;19912;-85
2022/05/03 09:39:22;;;;;;;;;;;18.90;98.70;;;;;;5070412;28;19909;-86
2022/05/03 09:42:03;;;;;;;;;;;19.00;98.30;;;;;;5070502;28;20391;-85
2022/05/03 09:44:31;;;;;;;;;;;19.10;98.30;;;;;;5052446;28;20005;-85
2022/05/03 09:46:56;;;;;;;;;;;19.20;98.30;;;;;;5070597;28;20033;-86
2022/05/03 09:49:35;;;;;;;;;;;19.30;98.60;;;;;;5070111;28;20543;-86
2022/05/03 09:52:01;;;;;;;;;;;19.30;97.40;;;;;;5070668;28;20339;-85
2022/05/03 09:54:28;;;;;;;;;;;19.30;97.60;;;;;;5070346;28;19908;-86
2022/05/03 09:56:54;;;;;;;;;;;19.40;96.80;;;;;;5070126;28;19915;-86
2022/05/03 09:59:20;;;;;;;;;;;19.40;96.70;;;;;;5070061;28;19913;-86
2022/05/03 10:01:45;;;;;;;;;;;19.50;96.40;;;;;;5070227;28;20106;-86
2022/05/03 10:04:12;;;;;;;;;;;19.60;96.70;;;;;;5069900;28;20179;-86
2022/05/03 10:06:38;;;;;;;;;;;19.80;96.70;;;;;;5070459;28;19954;-86
2022/05/03 10:09:04;;;;;;;;;;;19.80;96.50;;;;;;5070209;28;19912;-86
2022/05/03 10:11:30;;;;;;;;;;;19.80;96.20;;;;;;5052293;28;19955;-85
2022/05/03 10:13:55;;;;;;;;;;;19.70;96.40;;;;;;5070272;28;20065;-87
2022/05/03 10:21:57;;;;;;;;;;;20.10;95.60;;;;;;5074348;28;19915;-87
2022/05/03 10:24:23;;;;;;;;;;;20.30;94.90;;;;;;5073989;28;19916;-87
2022/05/03 10:26:54;;;;;;;;;;;20.40;94.60;;;;;;5074093;28;20391;-86
2022/05/03 10:29:21;;;;;;;;;;;20.50;94.60;;;;;;5074279;28;19908;-88
2022/05/03 10:32:05;;;;;;;;;;;20.60;94.60;;;;;;5074477;28;19908;-87
2022/05/03 10:34:40;;;;;;;;;;;20.70;94.20;;;;;;5055892;28;20045;-87
2022/05/03 10:37:16;;;;;;;;;;;20.80;95.00;;;;;;5074319;28;19917;-88
2022/05/03 10:39:55;;;;;;;;;;;20.90;94.10;;;;;;5056202;28;19916;-87
2022/05/03 10:42:24;;;;;;;;;;;21.00;92.70;;;;;;5074445;28;19908;-88
2022/05/03 10:44:53;;;;;;;;;;;21.10;91.90;;;;;;5068006;28;19916;-89
2022/05/03 10:47:20;;;;;;;;;;;21.10;92.00;;;;;;5055798;28;20019;-87
2022/05/03 10:50:04;;;;;;;;;;;21.20;92.70;;;;;;5055985;28;20079;-90
2022/05/03 10:52:30;;;;;;;;;;;21.40;92.10;;;;;;5055863;28;19908;-89
2022/05/03 10:55:08;;;;;;;;;;;21.60;92.10;;;;;;5056014;28;20361;-88
2022/05/03 10:57:53;;;;;;;;;;;21.60;91.30;;;;;;5073746;28;20308;-89
2022/05/03 11:00:38;;;;;;;;;;;21.70;91.80;;;;;;5073803;28;19916;-87
2022/05/03 11:03:19;;;;;;;;;;;21.90;91.50;;;;;;5073698;28;19908;-87
2022/05/03 11:06:05;;;;;;;;;;;22.00;90.20;;;;;;5073583;28;19927;-88
2022/05/03 11:08:30;;;;;;;;;;;22.10;90.10;;;;;;5076554;28;19954;-89
2022/05/03 11:10:56;;;;;;;;;;;22.20;90.10;;;;;;5057262;28;20292;-85
2022/05/03 11:13:38;;;;;;;;;;;22.20;89.00;;;;;;5073348;28;19909;-87
2022/05/03 11:16:23;;;;;;;;;;;22.20;88.70;;;;;;5073193;28;19915;-87
2022/05/03 11:18:49;;;;;;;;;;;22.30;89.70;;;;;;5055268;28;20345;-86
2022/05/03 11:21:15;;;;;;;;;;;22.30;88.00;;;;;;5055055;28;19967;-87
2022/05/03 11:23:54;;;;;;;;;;;22.40;88.00;;;;;;5073300;28;20365;-86
2022/05/03 11:26:20;;;;;;;;;;;22.60;87.90;;;;;;5072744;28;19920;-86
2022/05/03 11:28:47;;;;;;;;;;;22.60;87.30;;;;;;5072126;28;20266;-87
2022/05/03 11:31:15;;;;;;;;;;;22.50;87.10;;;;;;5072601;28;20336;-87
2022/05/03 11:33:47;;;;;;;;;;;22.70;86.20;;;;;;5054520;28;19909;-87
2022/05/03 11:36:12;;;;;;;;;;;22.70;85.60;;;;;;5054919;28;19962;-87
2022/05/03 11:38:38;;;;;;;;;;;23.20;86.00;;;;;;5054787;28;19952;-87
2022/05/03 11:41:06;;;;;;;;;;;23.40;82.40;;;;;;5072956;28;19909;-88
2022/05/03 11:43:33;;;;;;;;;;;23.30;82.80;;;;;;5054614;28;19928;-87
2022/05/03 11:45:58;;;;;;;;;;;23.30;83.70;;;;;;5072595;28;19908;-87
2022/05/03 11:48:24;;;;;;;;;;;23.80;82.90;;;;;;5072092;28;20379;-87
2022/05/03 11:56:26;;;;;;;;;;;23.90;80.10;;;;;;5072409;28;19916;-87
2022/05/03 11:58:52;;;;;;;;;;;23.60;81.30;;;;;;5072398;28;19919;-86
2022/05/03 12:01:18;;;;;;;;;;;23.70;82.50;;;;;;5054398;28;19908;-87
2022/05/03 12:03:56;;;;;;;;;;;23.80;80.70;;;;;;5071717;28;20331;-87
2022/05/03 12:06:21;;;;;;;;;;;23.90;81.60;;;;;;5053999;28;19919;-87
2022/05/03 12:08:50;;;;;;;;;;;24.40;81.30;;;;;;5072175;28;19908;-87
2022/05/03 12:11:18;;;;;;;;;;;24.70;79.10;;;;;;5071941;28;19919;-87
2022/05/03 12:13:43;;;;;;;;;;;24.80;78.00;;;;;;5054301;28;19909;-87
2022/05/03 12:16:11;;;;;;;;;;;25.10;78.90;;;;;;5054036;28;19991;-87
2022/05/03 12:18:38;;;;;;;;;;;25.00;77.70;;;;;;5053641;28;19923;-87
2022/05/03 12:21:06;;;;;;;;;;;25.00;78.00;;;;;;5054029;28;19912;-86
2022/05/03 12:23:31;;;;;;;;;;;24.80;77.80;;;;;;5071632;28;19931;-87
2022/05/03 12:25:58;;;;;;;;;;;24.70;77.80;;;;;;5071561;28;20377;-86
2022/05/03 12:28:40;;;;;;;;;;;24.30;77.70;;;;;;5065113;28;19908;-87
2022/05/03 12:31:06;;;;;;;;;;;24.40;79.00;;;;;;5053809;28;20284;-86
2022/05/03 12:33:32;;;;;;;;;;;24.90;77.60;;;;;;5071235;28;20067;-87
2022/05/03 12:35:58;;;;;;;;;;;25.30;77.30;;;;;;5071760;28;19915;-87
2022/05/03 12:38:25;;;;;;;;;;;25.50;75.30;;;;;;5053569;28;19915;-87
2022/05/03 12:40:50;;;;;;;;;;;25.60;74.50;;;;;;5070562;28;19909;-87
2022/05/03 12:43:17;;;;;;;;;;;25.20;74.50;;;;;;5071268;28;20340;-86
2022/05/03 12:45:54;;;;;;;;;;;25.20;76.60;;;;;;5071532;28;20360;-87
2022/05/03 12:48:20;;;;;;;;;;;25.70;77.40;;;;;;5071180;28;19919;-86
2022/05/03 12:50:46;;;;;;;;;;;25.80;75.00;;;;;;5071457;28;20003;-87
2022/05/03 12:53:15;;;;;;;;;;;26.20;75.30;;;;;;5071152;28;19912;-87
2022/05/03 12:55:40;;;;;;;;;;;26.90;74.30;;;;;;5053785;28;19908;-87
2022/05/03 13:00:54;;;;;;;;;;;28.10;73.10;;;;;;5071006;28;20841;-87
2022/05/03 13:03:27;;;;;;;;;;;28.00;70.30;;;;;;5036258;27;2069628;-87
2022/05/03 13:05:54;;;;;;;;;;;27.50;70.40;;;;;;5108371;28;19912;-87
2022/05/03 13:08:19;;;;;;;;;;;27.00;70.20;;;;;;5089955;28;19912;-88
2022/05/03 13:10:45;;;;;;;;;;;26.50;71.10;;;;;;5108392;28;19908;-88
2022/05/03 13:13:11;;;;;;;;;;;26.00;70.30;;;;;;5089849;28;19908;-87
2022/05/03 13:15:38;;;;;;;;;;;25.70;72.10;;;;;;5108172;28;19918;-87
2022/05/03 13:18:04;;;;;;;;;;;25.40;71.70;;;;;;5107842;28;19908;-87
2022/05/03 13:20:30;;;;;;;;;;;25.30;71.90;;;;;;5089763;28;19956;-88
2022/05/03 13:22:55;;;;;;;;;;;25.30;71.70;;;;;;5108023;28;19959;-87
2022/05/03 13:25:21;;;;;;;;;;;25.40;72.20;;;;;;5089732;28;19944;-87
2022/05/03 13:27:47;;;;;;;;;;;25.20;71.00;;;;;;5107990;28;19962;-87
2022/05/03 13:30:13;;;;;;;;;;;25.00;71.80;;;;;;5107954;28;19908;-87
2022/05/03 13:32:38;;;;;;;;;;;25.10;72.30;;;;;;5107996;28;19908;-87
2022/05/03 13:35:04;;;;;;;;;;;25.50;73.20;;;;;;5107482;28;20142;-86
2022/05/03 13:40:29;;;;;;;;;;;25.80;71.90;;;;;;5107969;28;19915;-87
2022/05/03 13:42:55;;;;;;;;;;;25.60;70.40;;;;;;5107795;28;19916;-87
2022/05/03 13:45:21;;;;;;;;;;;25.80;72.90;;;;;;5107530;28;19915;-87
2022/05/03 13:47:46;;;;;;;;;;;25.60;72.50;;;;;;5107790;28;19908;-87
2022/05/03 13:50:12;;;;;;;;;;;25.70;72.90;;;;;;5107007;28;19908;-87
2022/05/03 13:52:38;;;;;;;;;;;26.00;71.30;;;;;;5089274;28;19915;-87
2022/05/03 13:55:04;;;;;;;;;;;25.90;70.60;;;;;;5107596;28;20264;-86
2022/05/03 13:57:30;;;;;;;;;;;25.90;70.80;;;;;;5107421;28;19912;-87
2022/05/03 13:59:56;;;;;;;;;;;26.90;70.60;;;;;;5107184;28;19915;-87
2022/05/03 14:02:21;;;;;;;;;;;28.30;69.20;;;;;;5107052;28;20271;-87
2022/05/03 14:04:47;;;;;;;;;;;30.50;67.00;;;;;;5107088;28;19995;-86
2022/05/03 14:07:12;;;;;;;;;;;32.80;65.30;;;;;;5107153;28;19946;-88
2022/05/03 14:09:38;;;;;;;;;;;33.20;63.20;;;;;;5107160;28;19959;-87
2022/05/03 14:12:08;;;;;;;;;;;31.40;62.20;;;;;;5088799;28;19909;-88
2022/05/03 14:14:33;;;;;;;;;;;30.20;64.80;;;;;;5094845;28;19915;-88
2022/05/03 14:16:59;;;;;;;;;;;29.20;65.20;;;;;;5093281;28;19916;-87
2022/05/03 14:19:24;;;;;;;;;;;28.00;66.30;;;;;;5092801;28;19915;-87
2022/05/03 14:21:50;;;;;;;;;;;27.30;66.70;;;;;;5069201;28;19916;-87
2022/05/03 14:24:16;;;;;;;;;;;27.40;66.60;;;;;;5093518;28;20318;-87
2022/05/03 14:26:41;;;;;;;;;;;27.60;67.20;;;;;;5093262;28;19915;-87
2022/05/03 14:29:07;;;;;;;;;;;29.50;64.50;;;;;;5093167;28;19909;-87
2022/05/03 14:31:35;;;;;;;;;;;31.60;63.10;;;;;;5092941;28;20384;-88
2022/05/03 14:34:01;;;;;;;;;;;33.80;60.10;;;;;;5092533;28;19908;-87
2022/05/03 14:36:30;;;;;;;;;;;35.40;58.40;;;;;;5093085;28;20006;-88
2022/05/03 14:38:56;;;;;;;;;;;35.10;58.30;;;;;;5093015;28;19908;-87
2022/05/03 14:41:22;;;;;;;;;;;33.10;58.70;;;;;;5092966;28;19938;-87
2022/05/03 14:43:47;;;;;;;;;;;32.30;58.30;;;;;;5093000;28;19912;-87
2022/05/03 14:46:13;;;;;;;;;;;32.00;59.90;;;;;;5092830;28;20452;-87
2022/05/03 14:48:38;;;;;;;;;;;34.10;58.90;;;;;;5092347;28;20424;-88
2022/05/03 14:51:04;;;;;;;;;;;36.60;58.20;;;;;;5092860;28;20376;-88
2022/05/03 14:53:29;;;;;;;;;;;38.30;54.40;;;;;;5092773;28;20265;-87
2022/05/03 15:04:12;;;;;;;;;;;39.30;50.40;;;;;;5092164;28;20300;-88
2022/05/03 15:06:41;;;;;;;;;;;39.80;50.80;;;;;;5092311;28;19908;-88
2022/05/03 15:09:10;;;;;;;;;;;40.80;50.10;;;;;;5092466;28;20102;-88
2022/05/03 15:11:36;;;;;;;;;;;41.80;49.20;;;;;;5092247;28;20007;-87